Terminal Aerodrome Forecast (TAF)

TAF


TAF for:NVSC (Vanua Lava/Sola Airport) issued at 1600 UTC 11 Dec 2017
Text:TAF NVSC 111600Z 1118/1218 VRB03KT 9999 SCT022
Forecast period:1800 to 2100 UTC 11 December 2017
Forecast type:FROM: standard forecast or significant change
Winds:variable direction winds at 3 MPH (3 knots; 1.5 m/s)
Visibility:6 or more sm (10+ km)
Ceiling:at least 12,000 feet AGL
Clouds: scattered clouds at 2200 feet AGL
Text:BECMG 1121/1123 09008KT
Forecast period:2100 UTC 11 December 2017 to 1800 UTC 12 December 2017
Forecast type:BECOMING: Conditions expected to become as follows by 2300 UTC 11 December 2017
Winds:from the E (90 degrees) at 9 MPH (8 knots; 4.1 m/s)
Visibility:6 or more sm (10+ km)
Ceiling:at least 12,000 feet AGL
Clouds: scattered clouds at 2200 feet AGL

TAF


TAF for:NVSG (Ambae/Longana Airport) issued at 1600 UTC 11 Dec 2017
Text:TAF NVSG 111600Z 1118/1218 VRB03KT 9999 SCT020
Forecast period:1800 to 2100 UTC 11 December 2017
Forecast type:FROM: standard forecast or significant change
Winds:variable direction winds at 3 MPH (3 knots; 1.5 m/s)
Visibility:6 or more sm (10+ km)
Ceiling:at least 12,000 feet AGL
Clouds: scattered clouds at 2000 feet AGL
Text:PROB40 INTER 1118/1124 8000 SHRA BKN018
Forecast period:1800 UTC 11 December 2017 to 0000 UTC 12 December 2017
Forecast type:TEMPORARY: The following changes expected for less than half the time period
Visibility: 5 sm ( 8 km)
Ceiling:1800 feet AGL
Clouds: broken clouds at 1800 feet AGL
Weather:SHRA (rain showers)
Text:BECMG 1121/1123 09506KT
Forecast period:2100 UTC 11 December 2017 to 1800 UTC 12 December 2017
Forecast type:BECOMING: Conditions expected to become as follows by 2300 UTC 11 December 2017
Winds:from the E (95 degrees) at 7 MPH (6 knots; 3.1 m/s)
Visibility:6 or more sm (10+ km)
Ceiling:at least 12,000 feet AGL
Clouds: scattered clouds at 2000 feet AGL

TAF


TAF for:NVSS (Santo/Pekoa International Airport) issued at 1600 UTC 11 Dec 2017
Text:TAF NVSS 111600Z 1118/1218 15007KT 9999 SCT020
Forecast period:1800 to 2100 UTC 11 December 2017
Forecast type:FROM: standard forecast or significant change
Winds:from the SSE (150 degrees) at 8 MPH (7 knots; 3.6 m/s)
Visibility:6 or more sm (10+ km)
Ceiling:at least 12,000 feet AGL
Clouds: scattered clouds at 2000 feet AGL
Text:PROB40 INTER 1118/1124 8000 SHRA BKN018
Forecast period:1800 UTC 11 December 2017 to 0000 UTC 12 December 2017
Forecast type:TEMPORARY: The following changes expected for less than half the time period
Visibility: 5 sm ( 8 km)
Ceiling:1800 feet AGL
Clouds: broken clouds at 1800 feet AGL
Weather:SHRA (rain showers)
Text:BECMG 1121/1123 03006KT
Forecast period:2100 UTC 11 December 2017 to 1800 UTC 12 December 2017
Forecast type:BECOMING: Conditions expected to become as follows by 2300 UTC 11 December 2017
Winds:from the NNE (30 degrees) at 7 MPH (6 knots; 3.1 m/s)
Visibility:6 or more sm (10+ km)
Ceiling:at least 12,000 feet AGL
Clouds: scattered clouds at 2000 feet AGL

TAF


TAF for:NVSL (Malekula/Lamap Airport) issued at 1600 UTC 11 Dec 2017
Text:TAF NVSL 111600Z 1118/1218 VRB03KT 9999 SCT020 INTER 1118/1124 9000 -SHRA BKN018
Forecast period:1800 to 2100 UTC 11 December 2017
Forecast type:FROM: standard forecast or significant change
Winds:variable direction winds at 3 MPH (3 knots; 1.5 m/s)
Visibility:6 or more sm (10+ km)
Ceiling:at least 12,000 feet AGL
Clouds: scattered clouds at 2000 feet AGL
Text:BECMG 1121/1123 06010KT
Forecast period:1800 UTC 11 December 2017 to 0000 UTC 12 December 2017
Forecast type:TEMPORARY: The following changes expected for less than half the time period
Visibility: 6 sm ( 9 km)
Ceiling:1800 feet AGL
Clouds: broken clouds at 1800 feet AGL
Weather:-SHRA (light rain showers)
Text:
Forecast period:2100 UTC 11 December 2017 to 1800 UTC 12 December 2017
Forecast type:BECOMING: Conditions expected to become as follows by 2300 UTC 11 December 2017
Winds:from the ENE (60 degrees) at 12 MPH (10 knots; 5.1 m/s)
Visibility:6 or more sm (10+ km)
Ceiling:at least 12,000 feet AGL
Clouds: scattered clouds at 2000 feet AGL

TAF


TAF for:NVSP (Malekula/Norsup Airport) (Norsup Arpt, --, NV) issued at 1600 UTC 11 Dec 2017
Text:TAF NVSP (Malekula/Norsup Airport) 111600Z 1118/1218 VRB03KT 9999 SCT020 INTER 1118/1124 9000 -SHRA BKN018
Forecast period:1800 to 2100 UTC 11 December 2017
Forecast type:FROM: standard forecast or significant change
Winds:variable direction winds at 3 MPH (3 knots; 1.5 m/s)
Visibility:6 or more sm (10+ km)
Ceiling:at least 12,000 feet AGL
Clouds: scattered clouds at 2000 feet AGL
Text:BECMG 1121/1123 08012KT
Forecast period:1800 UTC 11 December 2017 to 0000 UTC 12 December 2017
Forecast type:TEMPORARY: The following changes expected for less than half the time period
Visibility: 6 sm ( 9 km)
Ceiling:1800 feet AGL
Clouds: broken clouds at 1800 feet AGL
Weather:-SHRA (light rain showers)
Text:
Forecast period:2100 UTC 11 December 2017 to 1800 UTC 12 December 2017
Forecast type:BECOMING: Conditions expected to become as follows by 2300 UTC 11 December 2017
Winds:from the E (80 degrees) at 14 MPH (12 knots; 6.2 m/s)
Visibility:6 or more sm (10+ km)
Ceiling:at least 12,000 feet AGL
Clouds: scattered clouds at 2000 feet AGL

TAF


TAF for:NVVV (Efate/Bauerfield International Airport) issued at 1600 UTC 11 Dec 2017
Text:TAF NVVV 111600Z 1118/1218 VRB03KT 9999 SCT020
Forecast period:1800 to 2100 UTC 11 December 2017
Forecast type:FROM: standard forecast or significant change
Winds:variable direction winds at 3 MPH (3 knots; 1.5 m/s)
Visibility:6 or more sm (10+ km)
Ceiling:at least 12,000 feet AGL
Clouds: scattered clouds at 2000 feet AGL
Text:PROB40 INTER 1118/1124 9000 -SHRA BKN018
Forecast period:1800 UTC 11 December 2017 to 0000 UTC 12 December 2017
Forecast type:TEMPORARY: The following changes expected for less than half the time period
Visibility: 6 sm ( 9 km)
Ceiling:1800 feet AGL
Clouds: broken clouds at 1800 feet AGL
Weather:-SHRA (light rain showers)
Text:BECMG 1121/1123 07010KT
Forecast period:2100 UTC 11 December 2017 to 1800 UTC 12 December 2017
Forecast type:BECOMING: Conditions expected to become as follows by 2300 UTC 11 December 2017
Winds:from the ENE (70 degrees) at 12 MPH (10 knots; 5.1 m/s)
Visibility:6 or more sm (10+ km)
Ceiling:at least 12,000 feet AGL
Clouds: scattered clouds at 2000 feet AGL

TAF


TAF for:NVVW (Tanna/WhiteGrass International Airport) issued at 1600 UTC 11 Dec 2017
Text:TAF NVVW 111600Z 1118/1218 VRB03KT 9999 SCT020 INTER 1118/1124 9000 -SHRA BKN018
Forecast period:1800 UTC 11 December 2017 to 1800 UTC 12 December 2017
Forecast type:FROM: standard forecast or significant change
Winds:variable direction winds at 3 MPH (3 knots; 1.5 m/s)
Visibility:6 or more sm (10+ km)
Ceiling:at least 12,000 feet AGL
Clouds: scattered clouds at 2000 feet AGL
Text:
Forecast period:1800 UTC 11 December 2017 to 0000 UTC 12 December 2017
Forecast type:TEMPORARY: The following changes expected for less than half the time period
Visibility: 6 sm ( 9 km)
Ceiling:1800 feet AGL
Clouds: broken clouds at 1800 feet AGL
Weather:-SHRA (light rain showers)

TAF


TAF for:NVVA (Aneityum/Anelcahuat Airport) issued at 1600 UTC 11 Dec 2017
Text:TAF NVVA 111600Z 1118/1218 VRB03KT 9999 SCT020 INTER 1118/1124 9000 -SHRA BKN018
Forecast period:1800 to 2100 UTC 11 December 2017
Forecast type:FROM: standard forecast or significant change
Winds:variable direction winds at 3 MPH (3 knots; 1.5 m/s)
Visibility:6 or more sm (10+ km)
Ceiling:at least 12,000 feet AGL
Clouds: scattered clouds at 2000 feet AGL
Text:BECMG 1121/1123 09010KT
Forecast period:1800 UTC 11 December 2017 to 0000 UTC 12 December 2017
Forecast type:TEMPORARY: The following changes expected for less than half the time period
Visibility: 6 sm ( 9 km)
Ceiling:1800 feet AGL
Clouds: broken clouds at 1800 feet AGL
Weather:-SHRA (light rain showers)
Text:
Forecast period:2100 UTC 11 December 2017 to 1800 UTC 12 December 2017
Forecast type:BECOMING: Conditions expected to become as follows by 2300 UTC 11 December 2017
Winds:from the E (90 degrees) at 12 MPH (10 knots; 5.1 m/s)
Visibility:6 or more sm (10+ km)
Ceiling:at least 12,000 feet AGL
Clouds: scattered clouds at 2000 feet AGL

TAF

ADDS TAF Data INFO
IDs: Format: Raw Decoded Include METARs

Data at: 2040 UTC 11 Dec 2017

TAF NVSC 111600Z 1118/1218 VRB03KT 9999 SCT022
  BECMG 1121/1123 09008KT

 TAF NVSG 111600Z 1118/1218 VRB03KT 9999 SCT020
  PROB40 INTER 1118/1124 8000 SHRA BKN018
  BECMG 1121/1123 09506KT

 TAF NVSS 111600Z 1118/1218 15007KT 9999 SCT020
  PROB40 INTER 1118/1124 8000 SHRA BKN018
  BECMG 1121/1123 03006KT

 TAF NVSL 111600Z 1118/1218 VRB03KT 9999 SCT020 INTER 1118/1124 9000 -SHRA BKN018
  BECMG 1121/1123 06010KT

 TAF NVSP 111600Z 1118/1218 VRB03KT 9999 SCT020 INTER 1118/1124 9000 -SHRA BKN018
  BECMG 1121/1123 08012KT

 TAF NVVV 111600Z 1118/1218 VRB03KT 9999 SCT020
  PROB40 INTER 1118/1124 9000 -SHRA BKN018
  BECMG 1121/1123 07010KT

 TAF NVVW 111600Z 1118/1218 VRB03KT 9999 SCT020 INTER 1118/1124 9000 -SHRA BKN018
 TAF NVVA 111600Z 1118/1218 VRB03KT 9999 SCT020 INTER 1118/1124 9000 -SHRA BKN018
  BECMG 1121/1123 09010KT